sensor_id;sensor_type;location;lat;lon;timestamp;P1;durP1;ratioP1;P2;durP2;ratioP2
77117;SDS011;66072;50.238;19.228;2024-01-16T00:01:00;10.50;;;7.10;;
77117;SDS011;66072;50.238;19.228;2024-01-16T00:03:44;13.60;;;6.20;;
77117;SDS011;66072;50.238;19.228;2024-01-16T00:06:12;13.80;;;8.10;;
77117;SDS011;66072;50.238;19.228;2024-01-16T00:08:40;13.60;;;6.80;;
77117;SDS011;66072;50.238;19.228;2024-01-16T00:11:08;12.80;;;7.90;;
77117;SDS011;66072;50.238;19.228;2024-01-16T00:13:36;10.80;;;6.80;;
77117;SDS011;66072;50.238;19.228;2024-01-16T00:16:04;16.90;;;8.40;;
77117;SDS011;66072;50.238;19.228;2024-01-16T00:18:32;14.30;;;6.50;;
77117;SDS011;66072;50.238;19.228;2024-01-16T00:21:00;12.90;;;7.70;;
77117;SDS011;66072;50.238;19.228;2024-01-16T00:23:28;12.90;;;8.10;;
77117;SDS011;66072;50.238;19.228;2024-01-16T00:25:56;11.20;;;6.70;;
77117;SDS011;66072;50.238;19.228;2024-01-16T00:28:24;14.50;;;7.60;;
77117;SDS011;66072;50.238;19.228;2024-01-16T00:30:51;12.60;;;6.70;;
77117;SDS011;66072;50.238;19.228;2024-01-16T00:33:19;15.50;;;7.90;;
77117;SDS011;66072;50.238;19.228;2024-01-16T00:35:47;14.60;;;7.60;;
77117;SDS011;66072;50.238;19.228;2024-01-16T00:38:15;15.20;;;8.10;;
77117;SDS011;66072;50.238;19.228;2024-01-16T00:40:43;12.70;;;7.40;;
77117;SDS011;66072;50.238;19.228;2024-01-16T00:43:10;14.20;;;7.20;;
77117;SDS011;66072;50.238;19.228;2024-01-16T00:45:38;10.10;;;7.00;;
77117;SDS011;66072;50.238;19.228;2024-01-16T00:48:05;13.80;;;8.00;;
77117;SDS011;66072;50.238;19.228;2024-01-16T00:50:34;12.90;;;7.20;;
77117;SDS011;66072;50.238;19.228;2024-01-16T00:53:01;11.00;;;7.00;;
77117;SDS011;66072;50.238;19.228;2024-01-16T00:55:29;12.30;;;7.60;;
77117;SDS011;66072;50.238;19.228;2024-01-16T00:57:57;10.90;;;6.30;;
77117;SDS011;66072;50.238;19.228;2024-01-16T01:00:25;11.20;;;7.20;;
77117;SDS011;66072;50.238;19.228;2024-01-16T01:02:52;12.00;;;6.40;;
77117;SDS011;66072;50.238;19.228;2024-01-16T01:05:20;10.50;;;6.60;;
77117;SDS011;66072;50.238;19.228;2024-01-16T01:07:48;11.70;;;6.10;;
77117;SDS011;66072;50.238;19.228;2024-01-16T01:10:15;10.80;;;6.50;;
77117;SDS011;66072;50.238;19.228;2024-01-16T01:12:43;11.00;;;7.00;;
77117;SDS011;66072;50.238;19.228;2024-01-16T01:15:11;11.10;;;7.30;;
77117;SDS011;66072;50.238;19.228;2024-01-16T01:17:39;10.60;;;6.40;;
77117;SDS011;66072;50.238;19.228;2024-01-16T01:20:08;11.60;;;6.70;;
77117;SDS011;66072;50.238;19.228;2024-01-16T01:22:36;12.00;;;8.10;;
77117;SDS011;66072;50.238;19.228;2024-01-16T01:25:04;11.70;;;6.40;;
77117;SDS011;66072;50.238;19.228;2024-01-16T01:27:32;13.50;;;8.80;;
77117;SDS011;66072;50.238;19.228;2024-01-16T01:30:00;13.90;;;6.90;;
77117;SDS011;66072;50.238;19.228;2024-01-16T01:32:28;9.10;;;5.90;;
77117;SDS011;66072;50.238;19.228;2024-01-16T01:34:56;14.00;;;7.70;;
77117;SDS011;66072;50.238;19.228;2024-01-16T01:37:23;11.20;;;7.20;;
77117;SDS011;66072;50.238;19.228;2024-01-16T01:39:51;15.60;;;8.50;;
77117;SDS011;66072;50.238;19.228;2024-01-16T01:42:18;14.50;;;8.00;;
77117;SDS011;66072;50.238;19.228;2024-01-16T01:44:47;11.20;;;7.00;;
77117;SDS011;66072;50.238;19.228;2024-01-16T01:47:15;10.10;;;6.40;;
77117;SDS011;66072;50.238;19.228;2024-01-16T01:49:42;10.80;;;6.90;;
77117;SDS011;66072;50.238;19.228;2024-01-16T01:52:10;10.70;;;7.70;;
77117;SDS011;66072;50.238;19.228;2024-01-16T01:54:38;11.60;;;7.10;;
77117;SDS011;66072;50.238;19.228;2024-01-16T01:57:08;12.30;;;7.00;;
77117;SDS011;66072;50.238;19.228;2024-01-16T01:59:36;12.70;;;7.70;;
77117;SDS011;66072;50.238;19.228;2024-01-16T02:02:04;12.10;;;7.60;;
77117;SDS011;66072;50.238;19.228;2024-01-16T02:04:32;11.70;;;7.40;;
77117;SDS011;66072;50.238;19.228;2024-01-16T02:07:01;11.10;;;5.90;;
77117;SDS011;66072;50.238;19.228;2024-01-16T02:09:29;10.20;;;6.60;;
77117;SDS011;66072;50.238;19.228;2024-01-16T02:11:56;11.60;;;7.00;;
77117;SDS011;66072;50.238;19.228;2024-01-16T02:14:24;12.70;;;7.10;;
77117;SDS011;66072;50.238;19.228;2024-01-16T02:16:52;14.10;;;7.60;;
77117;SDS011;66072;50.238;19.228;2024-01-16T02:19:20;13.10;;;8.40;;
77117;SDS011;66072;50.238;19.228;2024-01-16T02:21:47;13.50;;;8.50;;
77117;SDS011;66072;50.238;19.228;2024-01-16T02:24:18;12.30;;;6.50;;
77117;SDS011;66072;50.238;19.228;2024-01-16T02:26:46;14.60;;;8.50;;
77117;SDS011;66072;50.238;19.228;2024-01-16T02:29:14;12.80;;;7.30;;
77117;SDS011;66072;50.238;19.228;2024-01-16T02:31:42;12.50;;;7.30;;
77117;SDS011;66072;50.238;19.228;2024-01-16T02:34:10;12.70;;;7.70;;
77117;SDS011;66072;50.238;19.228;2024-01-16T02:36:38;16.00;;;8.00;;
77117;SDS011;66072;50.238;19.228;2024-01-16T02:39:05;14.20;;;8.40;;
77117;SDS011;66072;50.238;19.228;2024-01-16T02:41:33;11.40;;;6.90;;
77117;SDS011;66072;50.238;19.228;2024-01-16T02:44:01;10.80;;;6.70;;
77117;SDS011;66072;50.238;19.228;2024-01-16T02:46:29;10.60;;;6.30;;
77117;SDS011;66072;50.238;19.228;2024-01-16T02:48:56;13.70;;;7.90;;
77117;SDS011;66072;50.238;19.228;2024-01-16T02:51:24;10.70;;;7.10;;
77117;SDS011;66072;50.238;19.228;2024-01-16T02:53:52;12.20;;;7.80;;
77117;SDS011;66072;50.238;19.228;2024-01-16T02:56:19;13.20;;;8.40;;
77117;SDS011;66072;50.238;19.228;2024-01-16T02:58:47;13.10;;;6.60;;
77117;SDS011;66072;50.238;19.228;2024-01-16T03:01:15;10.20;;;6.50;;
77117;SDS011;66072;50.238;19.228;2024-01-16T03:03:43;10.90;;;7.00;;
77117;SDS011;66072;50.238;19.228;2024-01-16T03:06:20;13.80;;;7.40;;
77117;SDS011;66072;50.238;19.228;2024-01-16T03:08:52;12.50;;;8.10;;
77117;SDS011;66072;50.238;19.228;2024-01-16T03:11:20;11.70;;;5.90;;
77117;SDS011;66072;50.238;19.228;2024-01-16T03:13:48;10.60;;;6.60;;
77117;SDS011;66072;50.238;19.228;2024-01-16T03:16:15;10.90;;;5.00;;
77117;SDS011;66072;50.238;19.228;2024-01-16T03:18:43;8.20;;;4.20;;
77117;SDS011;66072;50.238;19.228;2024-01-16T03:21:12;10.50;;;5.70;;
77117;SDS011;66072;50.238;19.228;2024-01-16T03:23:41;6.30;;;3.90;;
77117;SDS011;66072;50.238;19.228;2024-01-16T03:26:12;8.70;;;5.10;;
77117;SDS011;66072;50.238;19.228;2024-01-16T03:28:41;10.90;;;6.50;;
77117;SDS011;66072;50.238;19.228;2024-01-16T03:31:09;12.90;;;8.10;;
77117;SDS011;66072;50.238;19.228;2024-01-16T03:33:37;11.50;;;6.10;;
77117;SDS011;66072;50.238;19.228;2024-01-16T03:36:05;10.40;;;6.80;;
77117;SDS011;66072;50.238;19.228;2024-01-16T03:38:32;10.50;;;6.70;;
77117;SDS011;66072;50.238;19.228;2024-01-16T03:41:00;11.40;;;7.10;;
77117;SDS011;66072;50.238;19.228;2024-01-16T03:43:28;10.40;;;6.60;;
77117;SDS011;66072;50.238;19.228;2024-01-16T03:45:58;13.80;;;8.30;;
77117;SDS011;66072;50.238;19.228;2024-01-16T03:48:26;10.40;;;7.20;;
77117;SDS011;66072;50.238;19.228;2024-01-16T03:50:54;14.10;;;7.40;;
77117;SDS011;66072;50.238;19.228;2024-01-16T03:53:22;11.40;;;6.90;;
77117;SDS011;66072;50.238;19.228;2024-01-16T03:55:50;16.80;;;8.80;;
77117;SDS011;66072;50.238;19.228;2024-01-16T03:58:18;9.90;;;6.20;;
77117;SDS011;66072;50.238;19.228;2024-01-16T04:00:46;11.20;;;7.20;;
77117;SDS011;66072;50.238;19.228;2024-01-16T04:03:14;13.30;;;8.20;;
77117;SDS011;66072;50.238;19.228;2024-01-16T04:05:41;12.30;;;7.40;;
77117;SDS011;66072;50.238;19.228;2024-01-16T04:08:09;13.30;;;7.40;;
77117;SDS011;66072;50.238;19.228;2024-01-16T04:10:37;12.30;;;7.50;;
77117;SDS011;66072;50.238;19.228;2024-01-16T04:13:05;13.40;;;7.80;;
77117;SDS011;66072;50.238;19.228;2024-01-16T04:15:32;10.20;;;6.70;;
77117;SDS011;66072;50.238;19.228;2024-01-16T04:18:00;10.30;;;6.90;;
77117;SDS011;66072;50.238;19.228;2024-01-16T04:20:28;12.40;;;6.90;;
77117;SDS011;66072;50.238;19.228;2024-01-16T04:22:56;9.30;;;6.60;;
77117;SDS011;66072;50.238;19.228;2024-01-16T04:25:24;12.30;;;7.30;;
77117;SDS011;66072;50.238;19.228;2024-01-16T04:27:51;10.90;;;7.30;;
77117;SDS011;66072;50.238;19.228;2024-01-16T04:30:19;12.40;;;8.00;;
77117;SDS011;66072;50.238;19.228;2024-01-16T04:32:47;11.90;;;7.10;;
77117;SDS011;66072;50.238;19.228;2024-01-16T04:35:14;8.10;;;5.60;;
77117;SDS011;66072;50.238;19.228;2024-01-16T04:37:42;9.30;;;5.60;;
77117;SDS011;66072;50.238;19.228;2024-01-16T04:40:10;8.70;;;5.30;;
77117;SDS011;66072;50.238;19.228;2024-01-16T04:42:38;7.90;;;4.80;;
77117;SDS011;66072;50.238;19.228;2024-01-16T04:45:06;8.70;;;4.10;;
77117;SDS011;66072;50.238;19.228;2024-01-16T04:47:34;8.40;;;4.10;;
77117;SDS011;66072;50.238;19.228;2024-01-16T04:50:02;6.30;;;3.10;;
77117;SDS011;66072;50.238;19.228;2024-01-16T04:52:30;5.00;;;3.60;;
77117;SDS011;66072;50.238;19.228;2024-01-16T04:54:57;6.50;;;4.00;;
77117;SDS011;66072;50.238;19.228;2024-01-16T04:57:25;6.80;;;3.30;;
77117;SDS011;66072;50.238;19.228;2024-01-16T04:59:52;7.20;;;3.50;;
77117;SDS011;66072;50.238;19.228;2024-01-16T05:02:20;7.40;;;3.30;;
77117;SDS011;66072;50.238;19.228;2024-01-16T05:04:48;6.20;;;3.30;;
77117;SDS011;66072;50.238;19.228;2024-01-16T05:07:16;4.40;;;2.70;;
77117;SDS011;66072;50.238;19.228;2024-01-16T05:09:43;6.50;;;3.30;;
77117;SDS011;66072;50.238;19.228;2024-01-16T05:12:11;5.40;;;3.20;;
77117;SDS011;66072;50.238;19.228;2024-01-16T05:14:39;6.40;;;3.00;;
77117;SDS011;66072;50.238;19.228;2024-01-16T05:17:07;4.10;;;2.60;;
77117;SDS011;66072;50.238;19.228;2024-01-16T05:19:35;4.60;;;2.80;;
77117;SDS011;66072;50.238;19.228;2024-01-16T05:22:03;4.40;;;2.30;;
77117;SDS011;66072;50.238;19.228;2024-01-16T05:24:30;5.90;;;3.30;;
77117;SDS011;66072;50.238;19.228;2024-01-16T05:26:58;5.70;;;3.50;;
77117;SDS011;66072;50.238;19.228;2024-01-16T05:29:26;5.10;;;3.30;;
77117;SDS011;66072;50.238;19.228;2024-01-16T05:31:53;5.80;;;3.60;;
77117;SDS011;66072;50.238;19.228;2024-01-16T05:34:21;7.40;;;4.10;;
77117;SDS011;66072;50.238;19.228;2024-01-16T05:36:49;5.80;;;3.20;;
77117;SDS011;66072;50.238;19.228;2024-01-16T05:39:16;6.10;;;4.00;;
77117;SDS011;66072;50.238;19.228;2024-01-16T05:41:44;5.10;;;3.30;;
77117;SDS011;66072;50.238;19.228;2024-01-16T05:44:12;6.50;;;3.80;;
77117;SDS011;66072;50.238;19.228;2024-01-16T05:46:39;9.40;;;4.20;;
77117;SDS011;66072;50.238;19.228;2024-01-16T05:49:07;5.70;;;4.20;;
77117;SDS011;66072;50.238;19.228;2024-01-16T05:51:35;9.00;;;4.80;;
77117;SDS011;66072;50.238;19.228;2024-01-16T05:54:03;8.80;;;4.90;;
77117;SDS011;66072;50.238;19.228;2024-01-16T05:56:31;6.20;;;4.70;;
77117;SDS011;66072;50.238;19.228;2024-01-16T05:58:59;6.60;;;4.80;;
77117;SDS011;66072;50.238;19.228;2024-01-16T06:01:27;7.50;;;4.90;;
77117;SDS011;66072;50.238;19.228;2024-01-16T06:03:54;14.40;;;6.70;;
77117;SDS011;66072;50.238;19.228;2024-01-16T06:06:22;7.70;;;4.90;;
77117;SDS011;66072;50.238;19.228;2024-01-16T06:08:50;8.20;;;5.10;;
77117;SDS011;66072;50.238;19.228;2024-01-16T06:11:18;8.00;;;5.40;;
77117;SDS011;66072;50.238;19.228;2024-01-16T06:13:45;10.40;;;5.50;;
77117;SDS011;66072;50.238;19.228;2024-01-16T06:16:13;9.30;;;4.70;;
77117;SDS011;66072;50.238;19.228;2024-01-16T06:18:41;9.80;;;5.90;;
77117;SDS011;66072;50.238;19.228;2024-01-16T06:21:08;9.20;;;6.50;;
77117;SDS011;66072;50.238;19.228;2024-01-16T06:23:36;11.70;;;7.10;;
77117;SDS011;66072;50.238;19.228;2024-01-16T06:26:04;9.40;;;5.60;;
77117;SDS011;66072;50.238;19.228;2024-01-16T06:28:32;10.60;;;6.90;;
77117;SDS011;66072;50.238;19.228;2024-01-16T06:30:59;13.10;;;6.70;;
77117;SDS011;66072;50.238;19.228;2024-01-16T06:33:27;12.20;;;6.90;;
77117;SDS011;66072;50.238;19.228;2024-01-16T06:35:55;10.20;;;6.50;;
77117;SDS011;66072;50.238;19.228;2024-01-16T06:38:22;10.60;;;7.10;;
77117;SDS011;66072;50.238;19.228;2024-01-16T06:40:50;11.40;;;6.90;;
77117;SDS011;66072;50.238;19.228;2024-01-16T06:43:18;12.60;;;7.30;;
77117;SDS011;66072;50.238;19.228;2024-01-16T06:45:45;11.50;;;7.30;;
77117;SDS011;66072;50.238;19.228;2024-01-16T06:48:13;13.30;;;8.10;;
77117;SDS011;66072;50.238;19.228;2024-01-16T06:50:41;13.50;;;7.50;;
77117;SDS011;66072;50.238;19.228;2024-01-16T06:53:09;13.10;;;8.20;;
77117;SDS011;66072;50.238;19.228;2024-01-16T06:55:37;18.10;;;9.10;;
77117;SDS011;66072;50.238;19.228;2024-01-16T06:58:04;13.90;;;8.90;;
77117;SDS011;66072;50.238;19.228;2024-01-16T07:00:32;18.90;;;11.90;;
77117;SDS011;66072;50.238;19.228;2024-01-16T07:03:00;25.40;;;14.60;;
77117;SDS011;66072;50.238;19.228;2024-01-16T07:05:28;20.60;;;13.00;;
77117;SDS011;66072;50.238;19.228;2024-01-16T07:07:56;18.40;;;10.50;;
77117;SDS011;66072;50.238;19.228;2024-01-16T07:10:23;14.20;;;8.50;;
77117;SDS011;66072;50.238;19.228;2024-01-16T07:12:51;15.00;;;6.60;;
77117;SDS011;66072;50.238;19.228;2024-01-16T07:15:19;15.60;;;9.10;;
77117;SDS011;66072;50.238;19.228;2024-01-16T07:17:47;20.20;;;11.10;;
77117;SDS011;66072;50.238;19.228;2024-01-16T07:20:14;18.10;;;11.20;;
77117;SDS011;66072;50.238;19.228;2024-01-16T07:22:42;22.00;;;13.10;;
77117;SDS011;66072;50.238;19.228;2024-01-16T07:25:10;19.30;;;9.20;;
77117;SDS011;66072;50.238;19.228;2024-01-16T07:27:38;20.80;;;12.20;;
77117;SDS011;66072;50.238;19.228;2024-01-16T07:30:06;20.90;;;11.00;;
77117;SDS011;66072;50.238;19.228;2024-01-16T07:32:34;22.30;;;11.30;;
77117;SDS011;66072;50.238;19.228;2024-01-16T07:35:02;19.20;;;11.70;;
77117;SDS011;66072;50.238;19.228;2024-01-16T07:37:30;21.00;;;11.40;;
77117;SDS011;66072;50.238;19.228;2024-01-16T07:39:58;24.70;;;14.30;;
77117;SDS011;66072;50.238;19.228;2024-01-16T07:42:26;23.50;;;13.10;;
77117;SDS011;66072;50.238;19.228;2024-01-16T07:44:53;23.20;;;12.00;;
77117;SDS011;66072;50.238;19.228;2024-01-16T07:47:22;14.90;;;8.40;;
77117;SDS011;66072;50.238;19.228;2024-01-16T07:49:49;18.00;;;10.10;;
77117;SDS011;66072;50.238;19.228;2024-01-16T07:52:17;14.10;;;8.20;;
77117;SDS011;66072;50.238;19.228;2024-01-16T07:54:44;13.30;;;7.20;;
77117;SDS011;66072;50.238;19.228;2024-01-16T07:57:12;11.80;;;7.60;;
77117;SDS011;66072;50.238;19.228;2024-01-16T07:59:40;12.00;;;6.80;;
77117;SDS011;66072;50.238;19.228;2024-01-16T08:02:07;10.20;;;6.00;;
77117;SDS011;66072;50.238;19.228;2024-01-16T08:04:35;11.90;;;6.30;;
77117;SDS011;66072;50.238;19.228;2024-01-16T08:07:03;8.70;;;5.50;;
77117;SDS011;66072;50.238;19.228;2024-01-16T08:09:31;11.40;;;6.10;;
77117;SDS011;66072;50.238;19.228;2024-01-16T08:11:58;8.40;;;5.70;;
77117;SDS011;66072;50.238;19.228;2024-01-16T08:14:26;10.00;;;5.50;;
77117;SDS011;66072;50.238;19.228;2024-01-16T08:16:54;10.10;;;5.80;;
77117;SDS011;66072;50.238;19.228;2024-01-16T08:19:22;9.30;;;5.20;;
77117;SDS011;66072;50.238;19.228;2024-01-16T08:21:49;8.80;;;6.30;;
77117;SDS011;66072;50.238;19.228;2024-01-16T08:24:17;13.50;;;7.30;;
77117;SDS011;66072;50.238;19.228;2024-01-16T08:26:45;11.80;;;7.20;;
77117;SDS011;66072;50.238;19.228;2024-01-16T08:29:12;11.30;;;7.20;;
77117;SDS011;66072;50.238;19.228;2024-01-16T08:31:40;12.30;;;7.40;;
77117;SDS011;66072;50.238;19.228;2024-01-16T08:34:08;14.20;;;8.70;;
77117;SDS011;66072;50.238;19.228;2024-01-16T08:36:36;14.90;;;7.90;;
77117;SDS011;66072;50.238;19.228;2024-01-16T08:39:04;11.30;;;7.30;;
77117;SDS011;66072;50.238;19.228;2024-01-16T08:41:31;12.70;;;7.70;;
77117;SDS011;66072;50.238;19.228;2024-01-16T08:43:59;13.10;;;8.00;;
77117;SDS011;66072;50.238;19.228;2024-01-16T08:46:27;10.80;;;7.30;;
77117;SDS011;66072;50.238;19.228;2024-01-16T08:48:54;16.10;;;8.40;;
77117;SDS011;66072;50.238;19.228;2024-01-16T08:51:22;14.20;;;8.20;;
77117;SDS011;66072;50.238;19.228;2024-01-16T08:53:50;13.00;;;8.60;;
77117;SDS011;66072;50.238;19.228;2024-01-16T08:56:18;13.90;;;8.20;;
77117;SDS011;66072;50.238;19.228;2024-01-16T08:58:46;14.10;;;9.00;;
77117;SDS011;66072;50.238;19.228;2024-01-16T09:01:13;15.10;;;9.10;;
77117;SDS011;66072;50.238;19.228;2024-01-16T09:03:41;15.60;;;9.20;;
77117;SDS011;66072;50.238;19.228;2024-01-16T09:06:09;16.60;;;9.20;;
77117;SDS011;66072;50.238;19.228;2024-01-16T09:08:36;13.60;;;9.30;;
77117;SDS011;66072;50.238;19.228;2024-01-16T09:11:04;13.00;;;8.00;;
77117;SDS011;66072;50.238;19.228;2024-01-16T09:13:32;17.70;;;9.90;;
77117;SDS011;66072;50.238;19.228;2024-01-16T09:15:59;11.80;;;6.70;;
77117;SDS011;66072;50.238;19.228;2024-01-16T09:18:27;15.30;;;7.70;;
77117;SDS011;66072;50.238;19.228;2024-01-16T09:20:55;13.90;;;7.50;;
77117;SDS011;66072;50.238;19.228;2024-01-16T09:23:23;14.00;;;6.20;;
77117;SDS011;66072;50.238;19.228;2024-01-16T09:25:51;9.80;;;7.20;;
77117;SDS011;66072;50.238;19.228;2024-01-16T09:28:18;11.60;;;6.70;;
77117;SDS011;66072;50.238;19.228;2024-01-16T09:30:46;11.50;;;7.00;;
77117;SDS011;66072;50.238;19.228;2024-01-16T09:33:14;12.20;;;6.00;;
77117;SDS011;66072;50.238;19.228;2024-01-16T09:35:42;10.50;;;6.00;;
77117;SDS011;66072;50.238;19.228;2024-01-16T09:38:09;10.80;;;6.00;;
77117;SDS011;66072;50.238;19.228;2024-01-16T09:40:37;13.40;;;7.20;;
77117;SDS011;66072;50.238;19.228;2024-01-16T09:43:05;11.50;;;6.10;;
77117;SDS011;66072;50.238;19.228;2024-01-16T09:45:33;12.30;;;6.50;;
77117;SDS011;66072;50.238;19.228;2024-01-16T09:48:05;12.10;;;7.30;;
77117;SDS011;66072;50.238;19.228;2024-01-16T09:50:35;11.20;;;5.80;;
77117;SDS011;66072;50.238;19.228;2024-01-16T09:53:02;15.20;;;6.50;;
77117;SDS011;66072;50.238;19.228;2024-01-16T09:55:30;12.70;;;7.50;;
77117;SDS011;66072;50.238;19.228;2024-01-16T09:57:58;11.10;;;6.80;;
77117;SDS011;66072;50.238;19.228;2024-01-16T10:00:27;10.90;;;6.10;;
77117;SDS011;66072;50.238;19.228;2024-01-16T10:02:55;12.10;;;6.60;;
77117;SDS011;66072;50.238;19.228;2024-01-16T10:05:23;11.20;;;6.80;;
77117;SDS011;66072;50.238;19.228;2024-01-16T10:07:51;12.50;;;7.80;;
77117;SDS011;66072;50.238;19.228;2024-01-16T10:10:19;11.70;;;6.60;;
77117;SDS011;66072;50.238;19.228;2024-01-16T10:13:01;12.60;;;7.30;;
77117;SDS011;66072;50.238;19.228;2024-01-16T10:15:29;15.60;;;6.20;;
77117;SDS011;66072;50.238;19.228;2024-01-16T10:17:57;11.70;;;6.70;;
77117;SDS011;66072;50.238;19.228;2024-01-16T10:20:34;11.00;;;5.80;;
77117;SDS011;66072;50.238;19.228;2024-01-16T10:23:03;9.40;;;5.60;;
77117;SDS011;66072;50.238;19.228;2024-01-16T10:25:30;16.30;;;7.30;;
77117;SDS011;66072;50.238;19.228;2024-01-16T10:28:04;11.50;;;6.60;;
77117;SDS011;66072;50.238;19.228;2024-01-16T10:30:33;13.50;;;7.00;;
77117;SDS011;66072;50.238;19.228;2024-01-16T10:33:12;12.20;;;6.20;;
77117;SDS011;66072;50.238;19.228;2024-01-16T10:35:41;11.00;;;6.60;;
77117;SDS011;66072;50.238;19.228;2024-01-16T10:38:08;13.40;;;8.30;;
77117;SDS011;66072;50.238;19.228;2024-01-16T10:40:36;15.50;;;8.60;;
77117;SDS011;66072;50.238;19.228;2024-01-16T10:43:04;16.90;;;10.10;;
77117;SDS011;66072;50.238;19.228;2024-01-16T10:45:32;14.60;;;9.30;;
77117;SDS011;66072;50.238;19.228;2024-01-16T10:48:01;14.00;;;7.90;;
77117;SDS011;66072;50.238;19.228;2024-01-16T10:50:31;16.30;;;8.90;;
77117;SDS011;66072;50.238;19.228;2024-01-16T10:53:04;16.10;;;9.20;;
77117;SDS011;66072;50.238;19.228;2024-01-16T10:55:36;14.70;;;8.00;;
77117;SDS011;66072;50.238;19.228;2024-01-16T10:58:16;11.30;;;6.80;;
77117;SDS011;66072;50.238;19.228;2024-01-16T11:00:50;10.80;;;6.00;;
77117;SDS011;66072;50.238;19.228;2024-01-16T11:03:38;8.90;;;5.00;;
77117;SDS011;66072;50.238;19.228;2024-01-16T11:06:10;10.80;;;5.50;;
77117;SDS011;66072;50.238;19.228;2024-01-16T11:08:39;8.90;;;5.70;;
77117;SDS011;66072;50.238;19.228;2024-01-16T11:11:07;10.50;;;5.90;;
77117;SDS011;66072;50.238;19.228;2024-01-16T11:13:36;9.70;;;5.10;;
77117;SDS011;66072;50.238;19.228;2024-01-16T11:16:06;7.10;;;4.70;;
77117;SDS011;66072;50.238;19.228;2024-01-16T11:18:35;11.90;;;6.90;;
77117;SDS011;66072;50.238;19.228;2024-01-16T11:21:12;7.40;;;5.70;;
77117;SDS011;66072;50.238;19.228;2024-01-16T11:23:45;9.10;;;5.00;;
77117;SDS011;66072;50.238;19.228;2024-01-16T11:26:24;11.70;;;5.80;;
77117;SDS011;66072;50.238;19.228;2024-01-16T11:28:55;8.60;;;5.20;;
77117;SDS011;66072;50.238;19.228;2024-01-16T11:31:29;7.70;;;5.00;;
77117;SDS011;66072;50.238;19.228;2024-01-16T11:34:01;6.80;;;4.80;;
77117;SDS011;66072;50.238;19.228;2024-01-16T11:36:45;9.10;;;5.00;;
77117;SDS011;66072;50.238;19.228;2024-01-16T11:39:17;8.20;;;4.90;;
77117;SDS011;66072;50.238;19.228;2024-01-16T11:41:52;9.00;;;5.90;;
77117;SDS011;66072;50.238;19.228;2024-01-16T11:49:45;14.90;;;7.90;;
77117;SDS011;66072;50.238;19.228;2024-01-16T11:52:14;16.70;;;10.10;;
77117;SDS011;66072;50.238;19.228;2024-01-16T11:54:42;16.30;;;10.20;;
77117;SDS011;66072;50.238;19.228;2024-01-16T12:05:21;18.20;;;10.80;;
77117;SDS011;66072;50.238;19.228;2024-01-16T12:07:50;14.60;;;10.40;;
77117;SDS011;66072;50.238;19.228;2024-01-16T12:10:20;13.90;;;10.00;;
77117;SDS011;66072;50.238;19.228;2024-01-16T12:12:49;9.90;;;5.90;;
77117;SDS011;66072;50.238;19.228;2024-01-16T12:15:19;5.00;;;3.90;;
77117;SDS011;66072;50.238;19.228;2024-01-16T12:17:57;4.50;;;2.80;;
77117;SDS011;66072;50.238;19.228;2024-01-16T12:20:28;4.30;;;3.10;;
77117;SDS011;66072;50.238;19.228;2024-01-16T12:25:33;5.40;;;3.20;;
77117;SDS011;66072;50.238;19.228;2024-01-16T12:28:22;4.30;;;2.60;;
77117;SDS011;66072;50.238;19.228;2024-01-16T12:30:59;6.10;;;2.80;;
77117;SDS011;66072;50.238;19.228;2024-01-16T12:33:29;6.80;;;3.00;;
77117;SDS011;66072;50.238;19.228;2024-01-16T12:36:00;8.00;;;4.00;;
77117;SDS011;66072;50.238;19.228;2024-01-16T12:38:30;6.70;;;4.00;;
77117;SDS011;66072;50.238;19.228;2024-01-16T12:40:57;7.00;;;3.90;;
77117;SDS011;66072;50.238;19.228;2024-01-16T12:43:27;5.40;;;3.60;;
77117;SDS011;66072;50.238;19.228;2024-01-16T12:45:55;8.40;;;4.90;;
77117;SDS011;66072;50.238;19.228;2024-01-16T12:48:26;6.60;;;4.70;;
77117;SDS011;66072;50.238;19.228;2024-01-16T12:51:04;7.00;;;4.30;;
77117;SDS011;66072;50.238;19.228;2024-01-16T12:53:33;7.70;;;4.20;;
77117;SDS011;66072;50.238;19.228;2024-01-16T12:56:01;7.30;;;3.80;;
77117;SDS011;66072;50.238;19.228;2024-01-16T12:58:33;8.30;;;5.20;;
77117;SDS011;66072;50.238;19.228;2024-01-16T13:04:09;8.50;;;4.80;;
77117;SDS011;66072;50.238;19.228;2024-01-16T13:06:37;7.70;;;5.10;;
77117;SDS011;66072;50.238;19.228;2024-01-16T13:09:06;8.00;;;4.80;;
77117;SDS011;66072;50.238;19.228;2024-01-16T13:14:17;8.10;;;4.60;;
77117;SDS011;66072;50.238;19.228;2024-01-16T13:16:46;7.80;;;4.80;;
77117;SDS011;66072;50.238;19.228;2024-01-16T13:19:20;9.70;;;6.00;;
77117;SDS011;66072;50.238;19.228;2024-01-16T13:21:49;9.10;;;5.90;;
77117;SDS011;66072;50.238;19.228;2024-01-16T13:24:17;8.00;;;4.90;;
77117;SDS011;66072;50.238;19.228;2024-01-16T13:26:45;8.70;;;5.40;;
77117;SDS011;66072;50.238;19.228;2024-01-16T13:29:13;10.40;;;6.60;;
77117;SDS011;66072;50.238;19.228;2024-01-16T13:31:40;11.00;;;6.90;;
77117;SDS011;66072;50.238;19.228;2024-01-16T13:34:08;8.40;;;6.00;;
77117;SDS011;66072;50.238;19.228;2024-01-16T13:36:36;10.80;;;7.10;;
77117;SDS011;66072;50.238;19.228;2024-01-16T13:41:35;14.70;;;8.50;;
77117;SDS011;66072;50.238;19.228;2024-01-16T13:44:02;11.70;;;7.50;;
77117;SDS011;66072;50.238;19.228;2024-01-16T13:46:30;12.60;;;7.40;;
77117;SDS011;66072;50.238;19.228;2024-01-16T13:49:02;14.20;;;9.30;;
77117;SDS011;66072;50.238;19.228;2024-01-16T13:51:30;16.00;;;9.50;;
77117;SDS011;66072;50.238;19.228;2024-01-16T13:53:57;14.30;;;9.60;;
77117;SDS011;66072;50.238;19.228;2024-01-16T13:56:26;14.40;;;8.80;;
77117;SDS011;66072;50.238;19.228;2024-01-16T13:59:13;13.30;;;8.50;;
77117;SDS011;66072;50.238;19.228;2024-01-16T14:01:41;14.90;;;9.80;;
77117;SDS011;66072;50.238;19.228;2024-01-16T14:04:09;13.90;;;8.60;;
77117;SDS011;66072;50.238;19.228;2024-01-16T14:06:37;13.30;;;7.50;;
77117;SDS011;66072;50.238;19.228;2024-01-16T14:09:24;13.40;;;7.50;;
77117;SDS011;66072;50.238;19.228;2024-01-16T14:11:52;11.90;;;6.40;;
77117;SDS011;66072;50.238;19.228;2024-01-16T14:14:20;14.30;;;5.80;;
77117;SDS011;66072;50.238;19.228;2024-01-16T14:16:47;11.90;;;5.30;;
77117;SDS011;66072;50.238;19.228;2024-01-16T14:19:24;7.80;;;5.30;;
77117;SDS011;66072;50.238;19.228;2024-01-16T14:21:51;8.80;;;5.20;;
77117;SDS011;66072;50.238;19.228;2024-01-16T14:24:19;8.90;;;5.00;;
77117;SDS011;66072;50.238;19.228;2024-01-16T14:26:47;8.90;;;4.80;;
77117;SDS011;66072;50.238;19.228;2024-01-16T14:29:15;6.60;;;4.40;;
77117;SDS011;66072;50.238;19.228;2024-01-16T14:31:43;12.20;;;7.80;;
77117;SDS011;66072;50.238;19.228;2024-01-16T14:34:11;10.90;;;5.10;;
77117;SDS011;66072;50.238;19.228;2024-01-16T14:36:39;8.60;;;5.10;;
77117;SDS011;66072;50.238;19.228;2024-01-16T14:39:07;9.00;;;5.20;;
77117;SDS011;66072;50.238;19.228;2024-01-16T14:41:36;7.80;;;5.40;;
77117;SDS011;66072;50.238;19.228;2024-01-16T14:44:03;9.10;;;5.20;;
77117;SDS011;66072;50.238;19.228;2024-01-16T14:46:31;9.30;;;5.60;;
77117;SDS011;66072;50.238;19.228;2024-01-16T14:48:59;9.80;;;5.00;;
77117;SDS011;66072;50.238;19.228;2024-01-16T14:51:27;9.20;;;5.50;;
77117;SDS011;66072;50.238;19.228;2024-01-16T14:53:55;10.30;;;5.40;;
77117;SDS011;66072;50.238;19.228;2024-01-16T14:56:22;11.40;;;6.60;;